sensor_id;sensor_type;location;lat;lon;timestamp;P1;durP1;ratioP1;P2;durP2;ratioP2
63902;SDS011;50072;50.678;13.938;2022-12-07T00:01:20;4.70;;;2.03;;
63902;SDS011;50072;50.678;13.938;2022-12-07T00:03:48;4.00;;;1.70;;
63902;SDS011;50072;50.678;13.938;2022-12-07T00:06:16;4.30;;;2.15;;
63902;SDS011;50072;50.678;13.938;2022-12-07T00:08:43;3.63;;;1.90;;
63902;SDS011;50072;50.678;13.938;2022-12-07T00:11:12;8.35;;;3.10;;
63902;SDS011;50072;50.678;13.938;2022-12-07T00:13:43;6.40;;;2.45;;
63902;SDS011;50072;50.678;13.938;2022-12-07T00:16:14;6.30;;;2.70;;
63902;SDS011;50072;50.678;13.938;2022-12-07T00:18:41;3.42;;;2.17;;
63902;SDS011;50072;50.678;13.938;2022-12-07T00:21:12;8.23;;;3.70;;
63902;SDS011;50072;50.678;13.938;2022-12-07T00:23:43;14.48;;;5.55;;
63902;SDS011;50072;50.678;13.938;2022-12-07T00:26:11;8.60;;;3.95;;
63902;SDS011;50072;50.678;13.938;2022-12-07T00:28:40;9.35;;;4.68;;
63902;SDS011;50072;50.678;13.938;2022-12-07T00:31:10;5.28;;;3.10;;
63902;SDS011;50072;50.678;13.938;2022-12-07T00:33:38;5.80;;;3.40;;
63902;SDS011;50072;50.678;13.938;2022-12-07T00:36:05;6.70;;;3.22;;
63902;SDS011;50072;50.678;13.938;2022-12-07T00:38:33;7.70;;;4.13;;
63902;SDS011;50072;50.678;13.938;2022-12-07T00:41:03;6.75;;;3.63;;
63902;SDS011;50072;50.678;13.938;2022-12-07T00:43:31;6.07;;;3.67;;
63902;SDS011;50072;50.678;13.938;2022-12-07T00:45:57;7.53;;;4.28;;
63902;SDS011;50072;50.678;13.938;2022-12-07T00:48:23;7.70;;;4.68;;
63902;SDS011;50072;50.678;13.938;2022-12-07T00:50:50;7.38;;;4.28;;
63902;SDS011;50072;50.678;13.938;2022-12-07T00:53:16;7.30;;;4.20;;
63902;SDS011;50072;50.678;13.938;2022-12-07T00:55:42;8.07;;;4.50;;
63902;SDS011;50072;50.678;13.938;2022-12-07T00:58:08;5.30;;;3.42;;
63902;SDS011;50072;50.678;13.938;2022-12-07T01:00:38;6.47;;;3.65;;
63902;SDS011;50072;50.678;13.938;2022-12-07T01:03:06;6.37;;;3.53;;
63902;SDS011;50072;50.678;13.938;2022-12-07T01:05:34;6.78;;;3.92;;
63902;SDS011;50072;50.678;13.938;2022-12-07T01:07:59;7.90;;;4.32;;
63902;SDS011;50072;50.678;13.938;2022-12-07T01:10:26;7.55;;;4.40;;
63902;SDS011;50072;50.678;13.938;2022-12-07T01:12:52;10.50;;;5.32;;
63902;SDS011;50072;50.678;13.938;2022-12-07T01:15:18;8.35;;;4.72;;
63902;SDS011;50072;50.678;13.938;2022-12-07T01:17:44;8.10;;;4.07;;
63902;SDS011;50072;50.678;13.938;2022-12-07T01:20:10;10.40;;;5.43;;
63902;SDS011;50072;50.678;13.938;2022-12-07T01:22:37;9.07;;;5.05;;
63902;SDS011;50072;50.678;13.938;2022-12-07T01:25:05;9.35;;;4.95;;
63902;SDS011;50072;50.678;13.938;2022-12-07T01:27:32;10.35;;;5.30;;
63902;SDS011;50072;50.678;13.938;2022-12-07T01:29:59;9.13;;;4.90;;
63902;SDS011;50072;50.678;13.938;2022-12-07T01:32:26;9.23;;;5.03;;
63902;SDS011;50072;50.678;13.938;2022-12-07T01:34:52;8.57;;;4.68;;
63902;SDS011;50072;50.678;13.938;2022-12-07T01:37:18;8.68;;;4.90;;
63902;SDS011;50072;50.678;13.938;2022-12-07T01:39:44;10.85;;;5.53;;
63902;SDS011;50072;50.678;13.938;2022-12-07T01:42:10;11.27;;;4.90;;
63902;SDS011;50072;50.678;13.938;2022-12-07T01:47:39;7.68;;;4.00;;
63902;SDS011;50072;50.678;13.938;2022-12-07T01:50:06;6.97;;;3.70;;
63902;SDS011;50072;50.678;13.938;2022-12-07T01:52:33;10.10;;;4.30;;
63902;SDS011;50072;50.678;13.938;2022-12-07T01:55:10;15.30;;;5.20;;
63902;SDS011;50072;50.678;13.938;2022-12-07T01:57:40;19.05;;;6.55;;
63902;SDS011;50072;50.678;13.938;2022-12-07T02:00:09;15.68;;;5.55;;
63902;SDS011;50072;50.678;13.938;2022-12-07T02:05:17;14.65;;;5.55;;
63902;SDS011;50072;50.678;13.938;2022-12-07T02:07:43;11.88;;;4.82;;
63902;SDS011;50072;50.678;13.938;2022-12-07T02:10:21;9.18;;;4.07;;
63902;SDS011;50072;50.678;13.938;2022-12-07T02:12:50;8.43;;;3.85;;
63902;SDS011;50072;50.678;13.938;2022-12-07T02:18:21;7.78;;;3.55;;
63902;SDS011;50072;50.678;13.938;2022-12-07T02:21:11;9.38;;;4.45;;
63902;SDS011;50072;50.678;13.938;2022-12-07T02:24:05;8.13;;;4.43;;
63902;SDS011;50072;50.678;13.938;2022-12-07T02:30:09;9.45;;;4.40;;
63902;SDS011;50072;50.678;13.938;2022-12-07T02:32:48;8.68;;;3.75;;
63902;SDS011;50072;50.678;13.938;2022-12-07T02:35:44;6.47;;;3.80;;
63902;SDS011;50072;50.678;13.938;2022-12-07T02:41:18;7.28;;;4.05;;
63902;SDS011;50072;50.678;13.938;2022-12-07T02:43:57;9.63;;;4.80;;
63902;SDS011;50072;50.678;13.938;2022-12-07T02:46:27;9.25;;;4.50;;
63902;SDS011;50072;50.678;13.938;2022-12-07T02:48:58;8.95;;;4.47;;
63902;SDS011;50072;50.678;13.938;2022-12-07T02:51:29;7.28;;;3.70;;
63902;SDS011;50072;50.678;13.938;2022-12-07T02:53:56;6.80;;;3.83;;
63902;SDS011;50072;50.678;13.938;2022-12-07T02:56:39;7.85;;;3.42;;
63902;SDS011;50072;50.678;13.938;2022-12-07T03:07:08;12.45;;;5.10;;
63902;SDS011;50072;50.678;13.938;2022-12-07T03:09:57;9.35;;;4.35;;
63902;SDS011;50072;50.678;13.938;2022-12-07T03:12:40;13.85;;;4.70;;
63902;SDS011;50072;50.678;13.938;2022-12-07T03:15:15;12.65;;;4.57;;
63902;SDS011;50072;50.678;13.938;2022-12-07T03:17:54;12.50;;;4.72;;
63902;SDS011;50072;50.678;13.938;2022-12-07T03:20:25;13.18;;;5.05;;
63902;SDS011;50072;50.678;13.938;2022-12-07T03:22:53;19.13;;;6.25;;
63902;SDS011;50072;50.678;13.938;2022-12-07T03:25:20;11.52;;;4.60;;
63902;SDS011;50072;50.678;13.938;2022-12-07T03:30:29;10.25;;;4.20;;
63902;SDS011;50072;50.678;13.938;2022-12-07T03:33:04;20.25;;;7.53;;
63902;SDS011;50072;50.678;13.938;2022-12-07T03:40:58;19.23;;;7.28;;
63902;SDS011;50072;50.678;13.938;2022-12-07T03:43:28;16.83;;;6.63;;
63902;SDS011;50072;50.678;13.938;2022-12-07T03:46:00;14.55;;;6.00;;
63902;SDS011;50072;50.678;13.938;2022-12-07T03:48:59;13.63;;;5.53;;
63902;SDS011;50072;50.678;13.938;2022-12-07T03:54:30;12.68;;;6.00;;
63902;SDS011;50072;50.678;13.938;2022-12-07T03:57:02;12.15;;;5.82;;
63902;SDS011;50072;50.678;13.938;2022-12-07T03:59:29;11.98;;;5.50;;
63902;SDS011;50072;50.678;13.938;2022-12-07T04:01:56;14.55;;;6.15;;
63902;SDS011;50072;50.678;13.938;2022-12-07T04:04:27;13.45;;;6.43;;
63902;SDS011;50072;50.678;13.938;2022-12-07T04:06:53;12.43;;;6.35;;
63902;SDS011;50072;50.678;13.938;2022-12-07T04:09:20;11.85;;;5.97;;
63902;SDS011;50072;50.678;13.938;2022-12-07T04:11:46;15.68;;;6.50;;
63902;SDS011;50072;50.678;13.938;2022-12-07T04:14:12;11.82;;;5.63;;
63902;SDS011;50072;50.678;13.938;2022-12-07T04:16:47;9.45;;;4.93;;
63902;SDS011;50072;50.678;13.938;2022-12-07T04:19:14;7.10;;;3.78;;
63902;SDS011;50072;50.678;13.938;2022-12-07T04:21:41;5.13;;;2.97;;
63902;SDS011;50072;50.678;13.938;2022-12-07T04:24:07;7.10;;;4.13;;
63902;SDS011;50072;50.678;13.938;2022-12-07T04:26:33;6.68;;;3.72;;
63902;SDS011;50072;50.678;13.938;2022-12-07T04:28:59;7.37;;;3.37;;
63902;SDS011;50072;50.678;13.938;2022-12-07T04:31:25;6.82;;;3.78;;
63902;SDS011;50072;50.678;13.938;2022-12-07T04:33:50;6.65;;;3.35;;
63902;SDS011;50072;50.678;13.938;2022-12-07T04:36:17;4.13;;;2.45;;
63902;SDS011;50072;50.678;13.938;2022-12-07T04:38:45;5.40;;;2.97;;
63902;SDS011;50072;50.678;13.938;2022-12-07T04:41:11;6.90;;;3.22;;
63902;SDS011;50072;50.678;13.938;2022-12-07T04:43:36;5.78;;;3.20;;
63902;SDS011;50072;50.678;13.938;2022-12-07T04:46:03;5.53;;;3.63;;
63902;SDS011;50072;50.678;13.938;2022-12-07T04:48:29;6.57;;;3.28;;
63902;SDS011;50072;50.678;13.938;2022-12-07T04:50:55;6.38;;;3.38;;
63902;SDS011;50072;50.678;13.938;2022-12-07T04:53:21;6.03;;;3.22;;
63902;SDS011;50072;50.678;13.938;2022-12-07T04:55:48;6.15;;;3.22;;
63902;SDS011;50072;50.678;13.938;2022-12-07T04:58:13;8.52;;;4.50;;
63902;SDS011;50072;50.678;13.938;2022-12-07T05:00:40;17.58;;;7.18;;
63902;SDS011;50072;50.678;13.938;2022-12-07T05:03:06;8.90;;;4.38;;
63902;SDS011;50072;50.678;13.938;2022-12-07T05:05:32;12.02;;;5.93;;
63902;SDS011;50072;50.678;13.938;2022-12-07T05:07:57;18.88;;;8.00;;
63902;SDS011;50072;50.678;13.938;2022-12-07T05:10:23;21.15;;;8.57;;
63902;SDS011;50072;50.678;13.938;2022-12-07T05:12:49;11.15;;;4.70;;
63902;SDS011;50072;50.678;13.938;2022-12-07T05:15:15;20.20;;;7.88;;
63902;SDS011;50072;50.678;13.938;2022-12-07T05:17:41;25.20;;;9.57;;
63902;SDS011;50072;50.678;13.938;2022-12-07T05:20:07;10.75;;;5.35;;
63902;SDS011;50072;50.678;13.938;2022-12-07T05:22:34;19.05;;;7.07;;
63902;SDS011;50072;50.678;13.938;2022-12-07T05:25:00;24.40;;;9.88;;
63902;SDS011;50072;50.678;13.938;2022-12-07T05:27:26;22.27;;;9.35;;
63902;SDS011;50072;50.678;13.938;2022-12-07T05:29:52;38.95;;;14.90;;
63902;SDS011;50072;50.678;13.938;2022-12-07T05:32:17;22.45;;;9.45;;
63902;SDS011;50072;50.678;13.938;2022-12-07T05:34:44;14.80;;;6.53;;
63902;SDS011;50072;50.678;13.938;2022-12-07T05:37:10;11.98;;;4.43;;
63902;SDS011;50072;50.678;13.938;2022-12-07T05:39:36;8.02;;;4.07;;
63902;SDS011;50072;50.678;13.938;2022-12-07T05:42:06;9.80;;;4.97;;
63902;SDS011;50072;50.678;13.938;2022-12-07T05:44:39;11.50;;;4.32;;
63902;SDS011;50072;50.678;13.938;2022-12-07T05:47:06;32.55;;;11.50;;
63902;SDS011;50072;50.678;13.938;2022-12-07T05:49:33;32.28;;;12.00;;
63902;SDS011;50072;50.678;13.938;2022-12-07T05:51:58;40.05;;;14.35;;
63902;SDS011;50072;50.678;13.938;2022-12-07T05:54:25;34.50;;;13.45;;
63902;SDS011;50072;50.678;13.938;2022-12-07T05:56:51;31.08;;;12.02;;
63902;SDS011;50072;50.678;13.938;2022-12-07T05:59:19;32.08;;;12.57;;
63902;SDS011;50072;50.678;13.938;2022-12-07T06:01:50;30.17;;;11.85;;
63902;SDS011;50072;50.678;13.938;2022-12-07T06:04:31;26.02;;;10.82;;
63902;SDS011;50072;50.678;13.938;2022-12-07T06:06:59;22.67;;;9.07;;
63902;SDS011;50072;50.678;13.938;2022-12-07T06:09:26;22.85;;;8.13;;
63902;SDS011;50072;50.678;13.938;2022-12-07T06:11:54;14.45;;;6.05;;
63902;SDS011;50072;50.678;13.938;2022-12-07T06:14:39;11.35;;;5.50;;
63902;SDS011;50072;50.678;13.938;2022-12-07T06:17:06;13.75;;;6.57;;
63902;SDS011;50072;50.678;13.938;2022-12-07T06:19:33;12.27;;;5.68;;
63902;SDS011;50072;50.678;13.938;2022-12-07T06:22:00;13.32;;;6.35;;
63902;SDS011;50072;50.678;13.938;2022-12-07T06:24:28;13.70;;;6.25;;
63902;SDS011;50072;50.678;13.938;2022-12-07T06:26:55;16.65;;;6.18;;
63902;SDS011;50072;50.678;13.938;2022-12-07T06:29:21;11.13;;;5.47;;
63902;SDS011;50072;50.678;13.938;2022-12-07T06:31:48;15.63;;;6.45;;
63902;SDS011;50072;50.678;13.938;2022-12-07T06:34:19;12.65;;;6.03;;
63902;SDS011;50072;50.678;13.938;2022-12-07T06:36:48;12.38;;;6.47;;
63902;SDS011;50072;50.678;13.938;2022-12-07T06:39:19;15.48;;;7.00;;
63902;SDS011;50072;50.678;13.938;2022-12-07T06:41:50;14.07;;;6.53;;
63902;SDS011;50072;50.678;13.938;2022-12-07T06:44:17;13.52;;;6.20;;
63902;SDS011;50072;50.678;13.938;2022-12-07T06:46:44;12.50;;;5.35;;
63902;SDS011;50072;50.678;13.938;2022-12-07T06:49:11;12.95;;;6.05;;
63902;SDS011;50072;50.678;13.938;2022-12-07T06:51:38;19.65;;;8.32;;
63902;SDS011;50072;50.678;13.938;2022-12-07T06:54:09;18.67;;;8.35;;
63902;SDS011;50072;50.678;13.938;2022-12-07T06:56:37;15.63;;;6.47;;
63902;SDS011;50072;50.678;13.938;2022-12-07T06:59:05;10.85;;;5.15;;
63902;SDS011;50072;50.678;13.938;2022-12-07T07:01:33;11.77;;;5.13;;
63902;SDS011;50072;50.678;13.938;2022-12-07T07:04:00;12.38;;;5.80;;
63902;SDS011;50072;50.678;13.938;2022-12-07T07:06:26;13.27;;;6.20;;
63902;SDS011;50072;50.678;13.938;2022-12-07T07:08:54;14.75;;;6.00;;
63902;SDS011;50072;50.678;13.938;2022-12-07T07:11:20;15.52;;;5.88;;
63902;SDS011;50072;50.678;13.938;2022-12-07T07:13:47;13.52;;;5.68;;
63902;SDS011;50072;50.678;13.938;2022-12-07T07:16:13;26.48;;;8.98;;
63902;SDS011;50072;50.678;13.938;2022-12-07T07:18:39;14.60;;;5.80;;
63902;SDS011;50072;50.678;13.938;2022-12-07T07:21:06;13.75;;;6.40;;
63902;SDS011;50072;50.678;13.938;2022-12-07T07:23:34;18.67;;;8.48;;
63902;SDS011;50072;50.678;13.938;2022-12-07T07:25:59;11.82;;;6.22;;
63902;SDS011;50072;50.678;13.938;2022-12-07T07:28:26;14.88;;;6.85;;
63902;SDS011;50072;50.678;13.938;2022-12-07T07:30:52;9.63;;;5.45;;
63902;SDS011;50072;50.678;13.938;2022-12-07T07:33:18;12.80;;;6.82;;
63902;SDS011;50072;50.678;13.938;2022-12-07T07:35:46;11.30;;;6.15;;
63902;SDS011;50072;50.678;13.938;2022-12-07T07:38:12;9.10;;;5.05;;
63902;SDS011;50072;50.678;13.938;2022-12-07T07:40:38;7.40;;;4.05;;
63902;SDS011;50072;50.678;13.938;2022-12-07T07:43:05;6.55;;;3.20;;
63902;SDS011;50072;50.678;13.938;2022-12-07T07:45:31;6.60;;;3.40;;
63902;SDS011;50072;50.678;13.938;2022-12-07T07:47:58;7.15;;;3.38;;
63902;SDS011;50072;50.678;13.938;2022-12-07T07:50:24;7.75;;;3.33;;
63902;SDS011;50072;50.678;13.938;2022-12-07T07:52:50;6.18;;;3.47;;
63902;SDS011;50072;50.678;13.938;2022-12-07T07:55:16;9.73;;;3.85;;
63902;SDS011;50072;50.678;13.938;2022-12-07T07:57:42;7.47;;;3.17;;
63902;SDS011;50072;50.678;13.938;2022-12-07T08:00:09;9.27;;;3.65;;
63902;SDS011;50072;50.678;13.938;2022-12-07T08:02:38;11.13;;;3.78;;
63902;SDS011;50072;50.678;13.938;2022-12-07T08:05:04;9.10;;;3.65;;
63902;SDS011;50072;50.678;13.938;2022-12-07T08:07:30;10.88;;;3.63;;
63902;SDS011;50072;50.678;13.938;2022-12-07T08:09:56;11.25;;;4.63;;
63902;SDS011;50072;50.678;13.938;2022-12-07T08:12:22;11.32;;;4.18;;
63902;SDS011;50072;50.678;13.938;2022-12-07T08:14:48;9.30;;;4.65;;
63902;SDS011;50072;50.678;13.938;2022-12-07T08:17:14;10.80;;;4.43;;
63902;SDS011;50072;50.678;13.938;2022-12-07T08:19:39;10.48;;;4.75;;
63902;SDS011;50072;50.678;13.938;2022-12-07T08:22:05;11.02;;;4.28;;
63902;SDS011;50072;50.678;13.938;2022-12-07T08:24:34;9.80;;;4.70;;
63902;SDS011;50072;50.678;13.938;2022-12-07T08:27:01;10.80;;;5.00;;
63902;SDS011;50072;50.678;13.938;2022-12-07T08:29:27;11.18;;;4.43;;
63902;SDS011;50072;50.678;13.938;2022-12-07T08:31:53;10.00;;;4.60;;
63902;SDS011;50072;50.678;13.938;2022-12-07T08:34:18;13.70;;;5.30;;
63902;SDS011;50072;50.678;13.938;2022-12-07T08:36:44;13.57;;;5.55;;
63902;SDS011;50072;50.678;13.938;2022-12-07T08:39:10;12.60;;;5.35;;
63902;SDS011;50072;50.678;13.938;2022-12-07T08:44:07;13.05;;;5.50;;
63902;SDS011;50072;50.678;13.938;2022-12-07T08:46:40;10.73;;;5.90;;
63902;SDS011;50072;50.678;13.938;2022-12-07T08:49:13;16.48;;;5.28;;
63902;SDS011;50072;50.678;13.938;2022-12-07T08:51:43;11.55;;;5.65;;
63902;SDS011;50072;50.678;13.938;2022-12-07T08:54:13;12.88;;;5.68;;
63902;SDS011;50072;50.678;13.938;2022-12-07T08:56:42;14.48;;;5.95;;
63902;SDS011;50072;50.678;13.938;2022-12-07T08:59:09;14.82;;;7.82;;
63902;SDS011;50072;50.678;13.938;2022-12-07T09:01:37;12.73;;;7.38;;
63902;SDS011;50072;50.678;13.938;2022-12-07T09:04:03;17.77;;;8.82;;
63902;SDS011;50072;50.678;13.938;2022-12-07T09:06:28;16.45;;;7.70;;
63902;SDS011;50072;50.678;13.938;2022-12-07T09:08:56;20.88;;;9.93;;
63902;SDS011;50072;50.678;13.938;2022-12-07T09:11:25;13.00;;;6.60;;
63902;SDS011;50072;50.678;13.938;2022-12-07T09:13:51;43.72;;;23.40;;
63902;SDS011;50072;50.678;13.938;2022-12-07T09:16:17;39.75;;;16.42;;
63902;SDS011;50072;50.678;13.938;2022-12-07T09:18:42;29.85;;;12.52;;
63902;SDS011;50072;50.678;13.938;2022-12-07T09:21:08;23.50;;;10.40;;
63902;SDS011;50072;50.678;13.938;2022-12-07T09:23:34;15.52;;;8.65;;
63902;SDS011;50072;50.678;13.938;2022-12-07T09:26:01;17.83;;;6.97;;
63902;SDS011;50072;50.678;13.938;2022-12-07T09:28:28;14.50;;;7.00;;
63902;SDS011;50072;50.678;13.938;2022-12-07T09:30:55;11.45;;;5.88;;
63902;SDS011;50072;50.678;13.938;2022-12-07T09:33:21;13.27;;;5.75;;
63902;SDS011;50072;50.678;13.938;2022-12-07T09:35:48;14.07;;;5.68;;
63902;SDS011;50072;50.678;13.938;2022-12-07T09:38:14;10.88;;;5.63;;
63902;SDS011;50072;50.678;13.938;2022-12-07T09:40:42;12.50;;;5.88;;
63902;SDS011;50072;50.678;13.938;2022-12-07T09:43:12;12.07;;;6.80;;
63902;SDS011;50072;50.678;13.938;2022-12-07T09:48:20;11.95;;;6.68;;
63902;SDS011;50072;50.678;13.938;2022-12-07T09:50:48;15.90;;;7.05;;
63902;SDS011;50072;50.678;13.938;2022-12-07T09:53:32;14.68;;;6.40;;
63902;SDS011;50072;50.678;13.938;2022-12-07T09:56:04;14.77;;;8.60;;
63902;SDS011;50072;50.678;13.938;2022-12-07T09:58:31;14.60;;;8.10;;
63902;SDS011;50072;50.678;13.938;2022-12-07T10:03:35;13.30;;;7.57;;
63902;SDS011;50072;50.678;13.938;2022-12-07T10:06:04;13.80;;;7.60;;
63902;SDS011;50072;50.678;13.938;2022-12-07T10:08:31;12.40;;;5.85;;
63902;SDS011;50072;50.678;13.938;2022-12-07T10:10:58;15.57;;;5.93;;
63902;SDS011;50072;50.678;13.938;2022-12-07T10:13:40;10.77;;;6.18;;
63902;SDS011;50072;50.678;13.938;2022-12-07T10:18:57;11.40;;;5.65;;
63902;SDS011;50072;50.678;13.938;2022-12-07T10:21:58;12.85;;;5.22;;
63902;SDS011;50072;50.678;13.938;2022-12-07T10:24:26;11.18;;;5.30;;
63902;SDS011;50072;50.678;13.938;2022-12-07T10:26:52;11.02;;;4.82;;
63902;SDS011;50072;50.678;13.938;2022-12-07T10:31:54;10.52;;;5.28;;
63902;SDS011;50072;50.678;13.938;2022-12-07T10:34:32;13.80;;;5.85;;
63902;SDS011;50072;50.678;13.938;2022-12-07T10:37:16;10.50;;;4.28;;
63902;SDS011;50072;50.678;13.938;2022-12-07T10:39:45;8.60;;;4.20;;
63902;SDS011;50072;50.678;13.938;2022-12-07T10:42:27;7.30;;;3.70;;
63902;SDS011;50072;50.678;13.938;2022-12-07T10:45:07;7.40;;;3.85;;
63902;SDS011;50072;50.678;13.938;2022-12-07T11:06:46;5.78;;;2.10;;
63902;SDS011;50072;50.678;13.938;2022-12-07T11:12:05;6.90;;;2.47;;
63902;SDS011;50072;50.678;13.938;2022-12-07T11:17:13;7.13;;;1.80;;
63902;SDS011;50072;50.678;13.938;2022-12-07T11:19:49;4.32;;;2.00;;
63902;SDS011;50072;50.678;13.938;2022-12-07T11:28:03;6.18;;;1.77;;
63902;SDS011;50072;50.678;13.938;2022-12-07T11:30:49;2.83;;;1.63;;
63902;SDS011;50072;50.678;13.938;2022-12-07T11:33:26;4.13;;;1.35;;
63902;SDS011;50072;50.678;13.938;2022-12-07T11:41:03;3.08;;;1.67;;
63902;SDS011;50072;50.678;13.938;2022-12-07T11:44:26;4.60;;;1.77;;
63902;SDS011;50072;50.678;13.938;2022-12-07T11:46:54;5.47;;;1.98;;
63902;SDS011;50072;50.678;13.938;2022-12-07T11:49:40;3.78;;;1.77;;
63902;SDS011;50072;50.678;13.938;2022-12-07T11:52:18;5.50;;;1.85;;
63902;SDS011;50072;50.678;13.938;2022-12-07T11:54:51;8.13;;;2.85;;
63902;SDS011;50072;50.678;13.938;2022-12-07T11:57:20;9.23;;;2.28;;
63902;SDS011;50072;50.678;13.938;2022-12-07T11:59:56;8.63;;;2.30;;
63902;SDS011;50072;50.678;13.938;2022-12-07T12:02:26;7.78;;;2.88;;
63902;SDS011;50072;50.678;13.938;2022-12-07T12:07:48;5.28;;;2.35;;
63902;SDS011;50072;50.678;13.938;2022-12-07T12:21:01;9.25;;;2.60;;
63902;SDS011;50072;50.678;13.938;2022-12-07T12:26:25;6.13;;;2.72;;
63902;SDS011;50072;50.678;13.938;2022-12-07T12:29:02;9.30;;;2.83;;
63902;SDS011;50072;50.678;13.938;2022-12-07T12:31:35;6.65;;;2.65;;
63902;SDS011;50072;50.678;13.938;2022-12-07T12:36:57;12.48;;;4.40;;
63902;SDS011;50072;50.678;13.938;2022-12-07T12:39:24;8.30;;;3.90;;
63902;SDS011;50072;50.678;13.938;2022-12-07T12:41:51;7.82;;;3.28;;
63902;SDS011;50072;50.678;13.938;2022-12-07T12:49:36;8.10;;;3.80;;
63902;SDS011;50072;50.678;13.938;2022-12-07T12:52:01;9.50;;;4.32;;
63902;SDS011;50072;50.678;13.938;2022-12-07T12:57:34;8.45;;;2.17;;
63902;SDS011;50072;50.678;13.938;2022-12-07T13:00:15;7.85;;;2.67;;
63902;SDS011;50072;50.678;13.938;2022-12-07T13:05:21;6.15;;;1.95;;
63902;SDS011;50072;50.678;13.938;2022-12-07T13:15:51;8.00;;;2.75;;
63902;SDS011;50072;50.678;13.938;2022-12-07T13:18:37;5.40;;;2.50;;
63902;SDS011;50072;50.678;13.938;2022-12-07T13:26:09;5.55;;;2.10;;
63902;SDS011;50072;50.678;13.938;2022-12-07T13:29:06;7.43;;;2.47;;
63902;SDS011;50072;50.678;13.938;2022-12-07T13:31:47;7.70;;;2.60;;
63902;SDS011;50072;50.678;13.938;2022-12-07T13:37:18;5.53;;;2.50;;
63902;SDS011;50072;50.678;13.938;2022-12-07T13:39:51;7.28;;;3.22;;
63902;SDS011;50072;50.678;13.938;2022-12-07T13:42:33;10.52;;;3.20;;
63902;SDS011;50072;50.678;13.938;2022-12-07T13:45:13;14.95;;;4.40;;
63902;SDS011;50072;50.678;13.938;2022-12-07T13:48:08;8.80;;;3.63;;
63902;SDS011;50072;50.678;13.938;2022-12-07T13:50:59;10.68;;;3.60;;
63902;SDS011;50072;50.678;13.938;2022-12-07T13:53:27;7.60;;;2.90;;
63902;SDS011;50072;50.678;13.938;2022-12-07T13:55:59;4.80;;;2.72;;
63902;SDS011;50072;50.678;13.938;2022-12-07T13:58:29;5.50;;;1.95;;
63902;SDS011;50072;50.678;13.938;2022-12-07T14:00:57;6.60;;;2.60;;
63902;SDS011;50072;50.678;13.938;2022-12-07T14:03:25;4.93;;;2.28;;
63902;SDS011;50072;50.678;13.938;2022-12-07T14:06:10;5.88;;;2.33;;
63902;SDS011;50072;50.678;13.938;2022-12-07T14:08:42;4.57;;;2.03;;
63902;SDS011;50072;50.678;13.938;2022-12-07T14:11:18;5.28;;;2.60;;
63902;SDS011;50072;50.678;13.938;2022-12-07T14:18:43;63.40;;;20.55;;
63902;SDS011;50072;50.678;13.938;2022-12-07T14:23:35;13.98;;;4.93;;
63902;SDS011;50072;50.678;13.938;2022-12-07T14:26:08;10.05;;;3.90;;
63902;SDS011;50072;50.678;13.938;2022-12-07T14:28:38;12.80;;;5.45;;
63902;SDS011;50072;50.678;13.938;2022-12-07T14:31:13;15.55;;;4.75;;
63902;SDS011;50072;50.678;13.938;2022-12-07T14:33:41;10.25;;;3.97;;
63902;SDS011;50072;50.678;13.938;2022-12-07T14:36:13;16.27;;;5.28;;
63902;SDS011;50072;50.678;13.938;2022-12-07T14:38:40;8.52;;;3.45;;
63902;SDS011;50072;50.678;13.938;2022-12-07T14:41:16;13.85;;;4.53;;
63902;SDS011;50072;50.678;13.938;2022-12-07T14:44:09;15.50;;;4.82;;
63902;SDS011;50072;50.678;13.938;2022-12-07T14:46:37;20.10;;;5.88;;
63902;SDS011;50072;50.678;13.938;2022-12-07T14:49:03;17.20;;;5.75;;
63902;SDS011;50072;50.678;13.938;2022-12-07T14:51:28;20.83;;;5.53;;
63902;SDS011;50072;50.678;13.938;2022-12-07T14:53:54;8.88;;;3.75;;
63902;SDS011;50072;50.678;13.938;2022-12-07T14:56:21;9.60;;;3.78;;
63902;SDS011;50072;50.678;13.938;2022-12-07T14:58:47;7.72;;;3.67;;
63902;SDS011;50072;50.678;13.938;2022-12-07T15:01:13;15.57;;;5.10;;
63902;SDS011;50072;50.678;13.938;2022-12-07T15:03:39;7.05;;;3.38;;
63902;SDS011;50072;50.678;13.938;2022-12-07T15:06:06;19.67;;;6.00;;
63902;SDS011;50072;50.678;13.938;2022-12-07T15:08:33;6.78;;;3.20;;
63902;SDS011;50072;50.678;13.938;2022-12-07T15:10:58;18.23;;;6.28;;
63902;SDS011;50072;50.678;13.938;2022-12-07T15:13:24;7.13;;;2.95;;
63902;SDS011;50072;50.678;13.938;2022-12-07T15:16:13;8.55;;;3.45;;
63902;SDS011;50072;50.678;13.938;2022-12-07T15:18:42;7.72;;;2.90;;
63902;SDS011;50072;50.678;13.938;2022-12-07T15:21:12;5.38;;;3.22;;
63902;SDS011;50072;50.678;13.938;2022-12-07T15:23:39;15.55;;;5.32;;
63902;SDS011;50072;50.678;13.938;2022-12-07T15:26:05;13.38;;;5.85;;
63902;SDS011;50072;50.678;13.938;2022-12-07T15:28:31;21.17;;;7.00;;
63902;SDS011;50072;50.678;13.938;2022-12-07T15:30:56;15.35;;;6.30;;
63902;SDS011;50072;50.678;13.938;2022-12-07T15:33:22;14.40;;;7.03;;
63902;SDS011;50072;50.678;13.938;2022-12-07T15:35:48;15.38;;;8.77;;
63902;SDS011;50072;50.678;13.938;2022-12-07T15:38:14;12.43;;;7.10;;
63902;SDS011;50072;50.678;13.938;2022-12-07T15:40:40;14.65;;;6.18;;
63902;SDS011;50072;50.678;13.938;2022-12-07T15:43:08;14.07;;;6.85;;
63902;SDS011;50072;50.678;13.938;2022-12-07T15:45:54;14.90;;;7.30;;
63902;SDS011;50072;50.678;13.938;2022-12-07T15:48:20;12.88;;;6.53;;
63902;SDS011;50072;50.678;13.938;2022-12-07T15:50:46;10.77;;;6.38;;
63902;SDS011;50072;50.678;13.938;2022-12-07T15:53:12;13.23;;;6.57;;
63902;SDS011;50072;50.678;13.938;2022-12-07T15:55:38;11.65;;;5.82;;
63902;SDS011;50072;50.678;13.938;2022-12-07T15:58:06;11.60;;;6.22;;
63902;SDS011;50072;50.678;13.938;2022-12-07T16:00:33;14.88;;;6.78;;
63902;SDS011;50072;50.678;13.938;2022-12-07T16:02:59;12.70;;;4.93;;
63902;SDS011;50072;50.678;13.938;2022-12-07T16:05:24;10.73;;;4.90;;
63902;SDS011;50072;50.678;13.938;2022-12-07T16:07:50;7.15;;;3.00;;
63902;SDS011;50072;50.678;13.938;2022-12-07T16:10:16;7.28;;;3.75;;
63902;SDS011;50072;50.678;13.938;2022-12-07T16:12:42;15.35;;;5.85;;
63902;SDS011;50072;50.678;13.938;2022-12-07T16:15:08;7.70;;;3.50;;
63902;SDS011;50072;50.678;13.938;2022-12-07T16:17:35;9.15;;;3.50;;
63902;SDS011;50072;50.678;13.938;2022-12-07T16:20:01;7.70;;;3.40;;
63902;SDS011;50072;50.678;13.938;2022-12-07T16:22:27;10.13;;;3.72;;
63902;SDS011;50072;50.678;13.938;2022-12-07T16:24:52;11.68;;;4.72;;
63902;SDS011;50072;50.678;13.938;2022-12-07T16:27:18;23.73;;;11.30;;
63902;SDS011;50072;50.678;13.938;2022-12-07T16:29:44;21.33;;;10.27;;
63902;SDS011;50072;50.678;13.938;2022-12-07T16:32:10;14.45;;;5.78;;
63902;SDS011;50072;50.678;13.938;2022-12-07T16:34:36;15.13;;;6.95;;
63902;SDS011;50072;50.678;13.938;2022-12-07T16:37:03;14.18;;;6.22;;
63902;SDS011;50072;50.678;13.938;2022-12-07T16:39:29;12.38;;;5.13;;
63902;SDS011;50072;50.678;13.938;2022-12-07T16:41:55;11.05;;;5.60;;
63902;SDS011;50072;50.678;13.938;2022-12-07T16:44:21;10.68;;;5.80;;
63902;SDS011;50072;50.678;13.938;2022-12-07T16:46:48;11.27;;;5.25;;
63902;SDS011;50072;50.678;13.938;2022-12-07T16:49:15;11.40;;;5.53;;
63902;SDS011;50072;50.678;13.938;2022-12-07T16:51:41;18.00;;;8.10;;
63902;SDS011;50072;50.678;13.938;2022-12-07T16:54:11;17.60;;;8.43;;
63902;SDS011;50072;50.678;13.938;2022-12-07T16:56:38;26.88;;;10.65;;